sensor_id;sensor_type;location;lat;lon;timestamp;pressure;altitude;pressure_sealevel;temperature;humidity
76378;BME280;65200;49.500;8.654;2023-02-10T00:00:44;102473.59;;;-4.20;84.13
76378;BME280;65200;49.500;8.654;2023-02-10T00:03:11;102480.72;;;-3.96;82.99
76378;BME280;65200;49.500;8.654;2023-02-10T00:05:38;102482.56;;;-3.99;83.61
76378;BME280;65200;49.500;8.654;2023-02-10T00:08:06;102476.31;;;-3.94;83.58
76378;BME280;65200;49.500;8.654;2023-02-10T00:10:32;102478.78;;;-3.89;84.35
76378;BME280;65200;49.500;8.654;2023-02-10T00:12:59;102477.72;;;-4.13;83.31
76378;BME280;65200;49.500;8.654;2023-02-10T00:15:25;102481.84;;;-4.34;84.19
76378;BME280;65200;49.500;8.654;2023-02-10T00:17:52;102489.63;;;-4.31;85.86
76378;BME280;65200;49.500;8.654;2023-02-10T00:20:18;102490.47;;;-4.30;86.14
76378;BME280;65200;49.500;8.654;2023-02-10T00:22:44;102498.88;;;-4.19;85.66
76378;BME280;65200;49.500;8.654;2023-02-10T00:25:12;102501.44;;;-4.18;85.75
76378;BME280;65200;49.500;8.654;2023-02-10T00:27:39;102497.03;;;-4.15;85.35
76378;BME280;65200;49.500;8.654;2023-02-10T00:30:05;102508.16;;;-4.09;84.54
76378;BME280;65200;49.500;8.654;2023-02-10T00:32:32;102503.81;;;-4.08;84.80
76378;BME280;65200;49.500;8.654;2023-02-10T00:35:00;102512.25;;;-3.99;84.00
76378;BME280;65200;49.500;8.654;2023-02-10T00:37:26;102503.38;;;-3.95;83.87
76378;BME280;65200;49.500;8.654;2023-02-10T00:39:52;102507.25;;;-4.37;83.93
76378;BME280;65200;49.500;8.654;2023-02-10T00:42:21;102507.94;;;-4.31;84.56
76378;BME280;65200;49.500;8.654;2023-02-10T00:44:48;102513.56;;;-4.13;84.43
76378;BME280;65200;49.500;8.654;2023-02-10T00:47:14;102507.34;;;-4.11;84.65
76378;BME280;65200;49.500;8.654;2023-02-10T00:49:40;102513.66;;;-4.16;84.95
76378;BME280;65200;49.500;8.654;2023-02-10T00:52:07;102510.75;;;-4.07;84.49
76378;BME280;65200;49.500;8.654;2023-02-10T00:54:33;102515.63;;;-3.95;84.05
76378;BME280;65200;49.500;8.654;2023-02-10T00:57:00;102511.41;;;-4.01;84.33
76378;BME280;65200;49.500;8.654;2023-02-10T00:59:28;102512.09;;;-3.94;83.86
76378;BME280;65200;49.500;8.654;2023-02-10T01:01:54;102512.59;;;-4.11;84.38
76378;BME280;65200;49.500;8.654;2023-02-10T01:04:20;102524.59;;;-4.04;84.82
76378;BME280;65200;49.500;8.654;2023-02-10T01:06:47;102522.91;;;-4.05;84.06
76378;BME280;65200;49.500;8.654;2023-02-10T01:09:13;102533.53;;;-4.11;84.36
76378;BME280;65200;49.500;8.654;2023-02-10T01:11:39;102528.44;;;-3.86;83.12
76378;BME280;65200;49.500;8.654;2023-02-10T01:14:06;102536.28;;;-3.86;82.96
76378;BME280;65200;49.500;8.654;2023-02-10T01:16:34;102538.97;;;-3.88;83.45
76378;BME280;65200;49.500;8.654;2023-02-10T01:19:00;102546.38;;;-4.02;83.57
76378;BME280;65200;49.500;8.654;2023-02-10T01:21:27;102550.06;;;-4.09;83.95
76378;BME280;65200;49.500;8.654;2023-02-10T01:23:55;102543.91;;;-4.08;84.10
76378;BME280;65200;49.500;8.654;2023-02-10T01:26:21;102546.66;;;-4.12;84.76
76378;BME280;65200;49.500;8.654;2023-02-10T01:28:48;102552.22;;;-4.23;84.68
76378;BME280;65200;49.500;8.654;2023-02-10T01:31:16;102555.81;;;-4.58;84.09
76378;BME280;65200;49.500;8.654;2023-02-10T01:33:44;102562.78;;;-4.58;85.87
76378;BME280;65200;49.500;8.654;2023-02-10T01:36:13;102554.75;;;-4.51;86.15
76378;BME280;65200;49.500;8.654;2023-02-10T01:38:40;102544.19;;;-4.48;85.75
76378;BME280;65200;49.500;8.654;2023-02-10T01:41:07;102556.00;;;-4.33;85.81
76378;BME280;65200;49.500;8.654;2023-02-10T01:43:52;102551.53;;;-4.30;85.30
76378;BME280;65200;49.500;8.654;2023-02-10T01:46:19;102545.31;;;-4.26;84.57
76378;BME280;65200;49.500;8.654;2023-02-10T01:48:47;102545.25;;;-4.24;84.83
76378;BME280;65200;49.500;8.654;2023-02-10T01:51:15;102545.16;;;-4.21;84.97
76378;BME280;65200;49.500;8.654;2023-02-10T01:53:43;102552.09;;;-4.18;85.04
76378;BME280;65200;49.500;8.654;2023-02-10T01:56:13;102540.72;;;-4.18;85.10
76378;BME280;65200;49.500;8.654;2023-02-10T01:58:41;102544.81;;;-4.09;84.67
76378;BME280;65200;49.500;8.654;2023-02-10T02:01:09;102546.75;;;-4.15;84.90
76378;BME280;65200;49.500;8.654;2023-02-10T02:03:36;102547.41;;;-4.07;84.78
76378;BME280;65200;49.500;8.654;2023-02-10T02:06:07;102544.56;;;-4.31;84.37
76378;BME280;65200;49.500;8.654;2023-02-10T02:08:34;102543.75;;;-4.31;85.02
76378;BME280;65200;49.500;8.654;2023-02-10T02:11:07;102543.66;;;-4.28;84.73
76378;BME280;65200;49.500;8.654;2023-02-10T02:13:51;102546.25;;;-4.28;84.39
76378;BME280;65200;49.500;8.654;2023-02-10T02:16:30;102548.75;;;-4.24;84.98
76378;BME280;65200;49.500;8.654;2023-02-10T02:19:08;102549.63;;;-4.23;84.68
76378;BME280;65200;49.500;8.654;2023-02-10T02:22:04;102551.31;;;-4.22;85.14
76378;BME280;65200;49.500;8.654;2023-02-10T02:24:53;102555.50;;;-4.15;84.92
76378;BME280;65200;49.500;8.654;2023-02-10T02:27:38;102555.59;;;-4.20;85.33
76378;BME280;65200;49.500;8.654;2023-02-10T02:33:12;102556.63;;;-4.25;83.88
76378;BME280;65200;49.500;8.654;2023-02-10T02:35:43;102556.72;;;-4.28;84.32
76378;BME280;65200;49.500;8.654;2023-02-10T02:38:11;102565.81;;;-4.41;84.32
76378;BME280;65200;49.500;8.654;2023-02-10T02:40:37;102561.09;;;-4.59;84.85
76378;BME280;65200;49.500;8.654;2023-02-10T02:43:04;102562.50;;;-4.80;85.28
76378;BME280;65200;49.500;8.654;2023-02-10T02:45:35;102571.56;;;-4.93;87.08
76378;BME280;65200;49.500;8.654;2023-02-10T02:48:25;102575.75;;;-4.87;88.09
76378;BME280;65200;49.500;8.654;2023-02-10T02:50:59;102584.06;;;-4.70;88.20
76378;BME280;65200;49.500;8.654;2023-02-10T02:53:36;102587.16;;;-4.56;87.06
76378;BME280;65200;49.500;8.654;2023-02-10T02:56:12;102584.53;;;-4.56;86.38
76378;BME280;65200;49.500;8.654;2023-02-10T02:58:45;102586.38;;;-4.60;86.66
76378;BME280;65200;49.500;8.654;2023-02-10T03:01:18;102598.31;;;-4.50;85.61
76378;BME280;65200;49.500;8.654;2023-02-10T03:03:51;102597.31;;;-4.44;85.67
76378;BME280;65200;49.500;8.654;2023-02-10T03:06:18;102599.72;;;-4.37;84.67
76378;BME280;65200;49.500;8.654;2023-02-10T03:08:45;102606.59;;;-4.66;84.80
76378;BME280;65200;49.500;8.654;2023-02-10T03:11:12;102605.50;;;-4.58;85.40
76378;BME280;65200;49.500;8.654;2023-02-10T03:13:38;102601.91;;;-4.54;85.61
76378;BME280;65200;49.500;8.654;2023-02-10T03:16:05;102602.97;;;-4.61;85.22
76378;BME280;65200;49.500;8.654;2023-02-10T03:18:31;102597.88;;;-4.65;85.89
76378;BME280;65200;49.500;8.654;2023-02-10T03:20:59;102595.91;;;-4.57;84.92
76378;BME280;65200;49.500;8.654;2023-02-10T03:23:25;102608.09;;;-4.56;85.23
76378;BME280;65200;49.500;8.654;2023-02-10T03:25:52;102603.50;;;-4.48;84.76
76378;BME280;65200;49.500;8.654;2023-02-10T03:28:18;102600.22;;;-4.56;85.35
76378;BME280;65200;49.500;8.654;2023-02-10T03:30:45;102598.59;;;-4.60;85.79
76378;BME280;65200;49.500;8.654;2023-02-10T03:33:14;102594.34;;;-4.64;85.21
76378;BME280;65200;49.500;8.654;2023-02-10T03:35:41;102577.56;;;-4.56;85.97
76378;BME280;65200;49.500;8.654;2023-02-10T03:38:09;102577.59;;;-4.57;86.03
76378;BME280;65200;49.500;8.654;2023-02-10T03:40:36;102585.09;;;-4.45;86.18
76378;BME280;65200;49.500;8.654;2023-02-10T03:43:03;102579.88;;;-4.45;85.76
76378;BME280;65200;49.500;8.654;2023-02-10T03:45:29;102587.84;;;-4.50;85.38
76378;BME280;65200;49.500;8.654;2023-02-10T03:47:56;102581.84;;;-4.53;85.67
76378;BME280;65200;49.500;8.654;2023-02-10T03:50:24;102576.56;;;-4.52;85.52
76378;BME280;65200;49.500;8.654;2023-02-10T03:52:50;102589.19;;;-4.35;85.02
76378;BME280;65200;49.500;8.654;2023-02-10T03:55:18;102581.56;;;-4.43;84.79
76378;BME280;65200;49.500;8.654;2023-02-10T03:57:44;102585.63;;;-4.31;84.71
76378;BME280;65200;49.500;8.654;2023-02-10T04:00:13;102588.50;;;-4.42;85.27
76378;BME280;65200;49.500;8.654;2023-02-10T04:02:39;102590.25;;;-4.42;85.04
76378;BME280;65200;49.500;8.654;2023-02-10T04:05:06;102597.31;;;-4.44;85.38
76378;BME280;65200;49.500;8.654;2023-02-10T04:07:33;102591.38;;;-4.51;84.75
76378;BME280;65200;49.500;8.654;2023-02-10T04:09:59;102592.56;;;-4.62;85.86
76378;BME280;65200;49.500;8.654;2023-02-10T04:12:27;102593.41;;;-4.62;86.48
76378;BME280;65200;49.500;8.654;2023-02-10T04:14:53;102597.78;;;-4.62;86.18
76378;BME280;65200;49.500;8.654;2023-02-10T04:17:20;102605.47;;;-4.56;85.46
76378;BME280;65200;49.500;8.654;2023-02-10T04:19:46;102610.03;;;-4.64;86.05
76378;BME280;65200;49.500;8.654;2023-02-10T04:22:13;102613.31;;;-4.56;85.72
76378;BME280;65200;49.500;8.654;2023-02-10T04:24:39;102613.41;;;-4.59;85.96
76378;BME280;65200;49.500;8.654;2023-02-10T04:27:06;102608.47;;;-4.71;86.33
76378;BME280;65200;49.500;8.654;2023-02-10T04:29:33;102606.69;;;-4.69;86.25
76378;BME280;65200;49.500;8.654;2023-02-10T04:32:04;102616.19;;;-4.67;86.25
76378;BME280;65200;49.500;8.654;2023-02-10T04:34:30;102624.22;;;-4.73;86.47
76378;BME280;65200;49.500;8.654;2023-02-10T04:36:57;102606.69;;;-4.69;86.53
76378;BME280;65200;49.500;8.654;2023-02-10T04:39:23;102617.88;;;-4.64;85.48
76378;BME280;65200;49.500;8.654;2023-02-10T04:41:50;102624.25;;;-4.74;85.78
76378;BME280;65200;49.500;8.654;2023-02-10T04:44:16;102625.97;;;-4.73;85.59
76378;BME280;65200;49.500;8.654;2023-02-10T04:46:44;102633.38;;;-4.90;85.91
76378;BME280;65200;49.500;8.654;2023-02-10T04:49:10;102641.06;;;-4.84;86.16
76378;BME280;65200;49.500;8.654;2023-02-10T04:51:37;102636.72;;;-4.85;85.90
76378;BME280;65200;49.500;8.654;2023-02-10T04:54:03;102637.47;;;-4.80;86.03
76378;BME280;65200;49.500;8.654;2023-02-10T04:56:30;102643.16;;;-4.98;85.97
76378;BME280;65200;49.500;8.654;2023-02-10T04:58:56;102641.44;;;-5.01;86.22
76378;BME280;65200;49.500;8.654;2023-02-10T05:01:22;102641.38;;;-4.96;86.59
76378;BME280;65200;49.500;8.654;2023-02-10T05:03:50;102640.34;;;-4.91;86.02
76378;BME280;65200;49.500;8.654;2023-02-10T05:06:17;102646.59;;;-4.96;85.96
76378;BME280;65200;49.500;8.654;2023-02-10T05:08:43;102652.63;;;-4.94;85.95
76378;BME280;65200;49.500;8.654;2023-02-10T05:11:12;102637.09;;;-5.00;85.63
76378;BME280;65200;49.500;8.654;2023-02-10T05:13:39;102644.78;;;-4.94;85.71
76378;BME280;65200;49.500;8.654;2023-02-10T05:16:06;102650.91;;;-4.95;85.98
76378;BME280;65200;49.500;8.654;2023-02-10T05:18:34;102655.78;;;-4.80;85.37
76378;BME280;65200;49.500;8.654;2023-02-10T05:21:02;102653.75;;;-4.69;86.58
76378;BME280;65200;49.500;8.654;2023-02-10T05:23:29;102652.06;;;-4.70;86.51
76378;BME280;65200;49.500;8.654;2023-02-10T05:25:55;102659.00;;;-4.69;86.33
76378;BME280;65200;49.500;8.654;2023-02-10T05:28:22;102658.13;;;-4.70;86.17
76378;BME280;65200;49.500;8.654;2023-02-10T05:30:48;102660.84;;;-4.74;85.66
76378;BME280;65200;49.500;8.654;2023-02-10T05:33:15;102668.78;;;-4.77;85.81
76378;BME280;65200;49.500;8.654;2023-02-10T05:35:41;102671.78;;;-4.57;85.32
76378;BME280;65200;49.500;8.654;2023-02-10T05:38:09;102669.97;;;-4.55;86.68
76378;BME280;65200;49.500;8.654;2023-02-10T05:40:36;102669.47;;;-4.36;86.47
76378;BME280;65200;49.500;8.654;2023-02-10T05:43:03;102661.59;;;-4.36;86.30
76378;BME280;65200;49.500;8.654;2023-02-10T05:45:29;102668.72;;;-4.41;85.86
76378;BME280;65200;49.500;8.654;2023-02-10T05:47:56;102682.66;;;-4.40;85.48
76378;BME280;65200;49.500;8.654;2023-02-10T05:50:22;102674.44;;;-4.25;85.27
76378;BME280;65200;49.500;8.654;2023-02-10T05:52:49;102679.78;;;-4.30;85.76
76378;BME280;65200;49.500;8.654;2023-02-10T05:55:17;102676.22;;;-4.27;85.13
76378;BME280;65200;49.500;8.654;2023-02-10T05:57:43;102678.66;;;-4.21;85.06
76378;BME280;65200;49.500;8.654;2023-02-10T06:00:11;102682.28;;;-4.25;84.95
76378;BME280;65200;49.500;8.654;2023-02-10T06:02:38;102684.06;;;-4.27;85.18
76378;BME280;65200;49.500;8.654;2023-02-10T06:05:05;102682.38;;;-4.28;84.56
76378;BME280;65200;49.500;8.654;2023-02-10T06:07:31;102696.38;;;-4.31;84.93
76378;BME280;65200;49.500;8.654;2023-02-10T06:09:58;102706.19;;;-4.39;85.37
76378;BME280;65200;49.500;8.654;2023-02-10T06:12:26;102702.44;;;-4.29;85.25
76378;BME280;65200;49.500;8.654;2023-02-10T06:14:52;102713.69;;;-4.25;85.48
76378;BME280;65200;49.500;8.654;2023-02-10T06:17:19;102712.25;;;-4.04;84.18
76378;BME280;65200;49.500;8.654;2023-02-10T06:19:45;102708.84;;;-4.08;84.20
76378;BME280;65200;49.500;8.654;2023-02-10T06:22:12;102714.47;;;-3.89;84.25
76378;BME280;65200;49.500;8.654;2023-02-10T06:24:38;102706.75;;;-3.94;83.92
76378;BME280;65200;49.500;8.654;2023-02-10T06:27:06;102714.22;;;-3.80;83.82
76378;BME280;65200;49.500;8.654;2023-02-10T06:29:34;102719.75;;;-3.91;83.59
76378;BME280;65200;49.500;8.654;2023-02-10T06:32:00;102708.47;;;-3.93;83.81
76378;BME280;65200;49.500;8.654;2023-02-10T06:34:27;102717.97;;;-3.89;84.29
76378;BME280;65200;49.500;8.654;2023-02-10T06:36:54;102711.91;;;-3.60;83.69
76378;BME280;65200;49.500;8.654;2023-02-10T06:39:20;102716.41;;;-3.65;83.29
76378;BME280;65200;49.500;8.654;2023-02-10T06:41:46;102706.72;;;-3.62;83.68
76378;BME280;65200;49.500;8.654;2023-02-10T06:44:13;102714.31;;;-3.83;84.12
76378;BME280;65200;49.500;8.654;2023-02-10T06:46:41;102706.41;;;-3.82;84.58
76378;BME280;65200;49.500;8.654;2023-02-10T06:49:07;102703.53;;;-3.73;84.40
76378;BME280;65200;49.500;8.654;2023-02-10T06:51:33;102707.59;;;-3.61;83.86
76378;BME280;65200;49.500;8.654;2023-02-10T06:54:00;102714.56;;;-3.62;83.66
76378;BME280;65200;49.500;8.654;2023-02-10T06:56:26;102713.03;;;-3.69;84.06
76378;BME280;65200;49.500;8.654;2023-02-10T06:58:53;102709.63;;;-3.72;84.99
76378;BME280;65200;49.500;8.654;2023-02-10T07:01:20;102714.84;;;-3.71;84.73
76378;BME280;65200;49.500;8.654;2023-02-10T07:03:48;102717.00;;;-3.56;84.56
76378;BME280;65200;49.500;8.654;2023-02-10T07:06:14;102722.38;;;-3.30;83.87
76378;BME280;65200;49.500;8.654;2023-02-10T07:08:43;102715.94;;;-3.20;83.31
76378;BME280;65200;49.500;8.654;2023-02-10T07:11:09;102725.47;;;-3.16;82.88
76378;BME280;65200;49.500;8.654;2023-02-10T07:13:36;102722.44;;;-3.04;82.16
76378;BME280;65200;49.500;8.654;2023-02-10T07:16:03;102722.84;;;-2.88;81.53
76378;BME280;65200;49.500;8.654;2023-02-10T07:18:29;102720.91;;;-2.82;81.88
76378;BME280;65200;49.500;8.654;2023-02-10T07:20:57;102731.00;;;-2.69;81.40
76378;BME280;65200;49.500;8.654;2023-02-10T07:23:24;102733.25;;;-2.57;80.79
76378;BME280;65200;49.500;8.654;2023-02-10T07:25:50;102731.22;;;-2.49;80.19
76378;BME280;65200;49.500;8.654;2023-02-10T07:28:17;102732.75;;;-2.42;80.45
76378;BME280;65200;49.500;8.654;2023-02-10T07:30:43;102729.22;;;-2.41;79.94
76378;BME280;65200;49.500;8.654;2023-02-10T07:33:10;102729.09;;;-2.38;80.04
76378;BME280;65200;49.500;8.654;2023-02-10T07:35:36;102730.56;;;-2.30;80.12
76378;BME280;65200;49.500;8.654;2023-02-10T07:38:04;102726.19;;;-2.29;79.98
76378;BME280;65200;49.500;8.654;2023-02-10T07:40:32;102721.13;;;-2.35;80.31
76378;BME280;65200;49.500;8.654;2023-02-10T07:42:59;102714.91;;;-2.33;79.78
76378;BME280;65200;49.500;8.654;2023-02-10T07:45:26;102715.75;;;-2.32;79.79
76378;BME280;65200;49.500;8.654;2023-02-10T07:47:56;102705.06;;;-2.26;80.22
76378;BME280;65200;49.500;8.654;2023-02-10T07:50:23;102706.66;;;-2.22;80.05
76378;BME280;65200;49.500;8.654;2023-02-10T07:52:50;102707.38;;;-2.17;79.84
76378;BME280;65200;49.500;8.654;2023-02-10T07:55:19;102719.63;;;-2.16;80.28
76378;BME280;65200;49.500;8.654;2023-02-10T07:57:45;102710.91;;;-2.18;80.46
76378;BME280;65200;49.500;8.654;2023-02-10T08:00:12;102717.59;;;-2.08;80.51
76378;BME280;65200;49.500;8.654;2023-02-10T08:02:39;102707.81;;;-2.05;80.03
76378;BME280;65200;49.500;8.654;2023-02-10T08:05:06;102712.00;;;-1.99;80.30
76378;BME280;65200;49.500;8.654;2023-02-10T08:07:33;102705.88;;;-2.00;80.10
76378;BME280;65200;49.500;8.654;2023-02-10T08:09:59;102719.53;;;-1.90;80.31
76378;BME280;65200;49.500;8.654;2023-02-10T08:12:27;102717.41;;;-1.79;80.39
76378;BME280;65200;49.500;8.654;2023-02-10T08:14:54;102725.78;;;-1.68;79.93
76378;BME280;65200;49.500;8.654;2023-02-10T08:17:20;102728.41;;;-1.68;80.00
76378;BME280;65200;49.500;8.654;2023-02-10T08:19:47;102727.94;;;-1.56;80.01
76378;BME280;65200;49.500;8.654;2023-02-10T08:22:14;102731.25;;;-1.51;79.80
76378;BME280;65200;49.500;8.654;2023-02-10T08:24:41;102730.06;;;-1.43;79.43
76378;BME280;65200;49.500;8.654;2023-02-10T08:27:07;102728.09;;;-1.36;79.35
76378;BME280;65200;49.500;8.654;2023-02-10T08:29:35;102728.31;;;-1.19;79.54
76378;BME280;65200;49.500;8.654;2023-02-10T08:32:02;102735.34;;;-1.19;78.98
76378;BME280;65200;49.500;8.654;2023-02-10T08:34:29;102743.41;;;-1.01;78.99
76378;BME280;65200;49.500;8.654;2023-02-10T08:36:55;102742.97;;;-0.90;78.89
76378;BME280;65200;49.500;8.654;2023-02-10T08:39:22;102740.97;;;-0.84;78.63
76378;BME280;65200;49.500;8.654;2023-02-10T08:41:49;102747.59;;;-0.74;78.18
76378;BME280;65200;49.500;8.654;2023-02-10T08:44:15;102732.47;;;-0.69;78.35
76378;BME280;65200;49.500;8.654;2023-02-10T08:46:43;102741.41;;;-0.51;77.38
76378;BME280;65200;49.500;8.654;2023-02-10T08:49:09;102744.28;;;-0.36;76.67
76378;BME280;65200;49.500;8.654;2023-02-10T08:51:36;102742.13;;;-0.26;75.81
76378;BME280;65200;49.500;8.654;2023-02-10T08:54:04;102747.72;;;0.08;75.88
76378;BME280;65200;49.500;8.654;2023-02-10T08:56:31;102749.28;;;0.12;75.32
76378;BME280;65200;49.500;8.654;2023-02-10T08:58:59;102748.75;;;0.24;75.13
76378;BME280;65200;49.500;8.654;2023-02-10T09:01:25;102749.41;;;0.29;74.18
76378;BME280;65200;49.500;8.654;2023-02-10T09:03:54;102737.41;;;0.42;73.88
76378;BME280;65200;49.500;8.654;2023-02-10T09:06:22;102746.94;;;0.83;73.24
76378;BME280;65200;49.500;8.654;2023-02-10T09:08:50;102760.13;;;0.83;73.26
76378;BME280;65200;49.500;8.654;2023-02-10T09:11:18;102764.38;;;0.87;72.08
76378;BME280;65200;49.500;8.654;2023-02-10T09:13:45;102777.94;;;1.17;72.48
76378;BME280;65200;49.500;8.654;2023-02-10T09:16:11;102774.13;;;1.22;71.35
76378;BME280;65200;49.500;8.654;2023-02-10T09:18:38;102777.56;;;1.43;71.67
76378;BME280;65200;49.500;8.654;2023-02-10T09:21:06;102780.97;;;1.45;70.39
76378;BME280;65200;49.500;8.654;2023-02-10T09:23:32;102784.81;;;1.57;70.72
76378;BME280;65200;49.500;8.654;2023-02-10T09:25:59;102788.34;;;1.38;69.81
76378;BME280;65200;49.500;8.654;2023-02-10T09:28:26;102792.25;;;1.49;70.71
76378;BME280;65200;49.500;8.654;2023-02-10T09:30:53;102791.47;;;1.47;71.44
76378;BME280;65200;49.500;8.654;2023-02-10T09:33:20;102789.13;;;1.40;71.07
76378;BME280;65200;49.500;8.654;2023-02-10T09:35:47;102797.47;;;1.50;71.11
76378;BME280;65200;49.500;8.654;2023-02-10T09:38:14;102782.31;;;1.54;69.91
76378;BME280;65200;49.500;8.654;2023-02-10T09:40:50;102785.69;;;1.57;69.83
76378;BME280;65200;49.500;8.654;2023-02-10T09:43:28;102791.19;;;1.53;69.69
76378;BME280;65200;49.500;8.654;2023-02-10T09:46:05;102793.44;;;1.96;69.70
76378;BME280;65200;49.500;8.654;2023-02-10T09:48:39;102794.03;;;1.67;68.73
76378;BME280;65200;49.500;8.654;2023-02-10T09:51:15;102790.97;;;1.57;69.36
76378;BME280;65200;49.500;8.654;2023-02-10T09:53:43;102794.72;;;1.70;68.65
76378;BME280;65200;49.500;8.654;2023-02-10T09:56:15;102784.03;;;1.55;69.08
76378;BME280;65200;49.500;8.654;2023-02-10T09:58:44;102783.19;;;1.54;69.45
76378;BME280;65200;49.500;8.654;2023-02-10T10:01:15;102786.56;;;1.75;68.06
76378;BME280;65200;49.500;8.654;2023-02-10T10:03:48;102773.69;;;1.86;68.16
76378;BME280;65200;49.500;8.654;2023-02-10T10:06:21;102778.75;;;2.07;67.10
76378;BME280;65200;49.500;8.654;2023-02-10T10:08:57;102786.91;;;2.20;65.91
76378;BME280;65200;49.500;8.654;2023-02-10T10:11:29;102777.03;;;2.23;65.58
76378;BME280;65200;49.500;8.654;2023-02-10T10:13:56;102778.84;;;2.40;63.67
76378;BME280;65200;49.500;8.654;2023-02-10T10:16:42;102787.84;;;2.53;63.05
76378;BME280;65200;49.500;8.654;2023-02-10T10:19:16;102777.47;;;2.65;63.73
76378;BME280;65200;49.500;8.654;2023-02-10T10:21:51;102776.13;;;2.74;64.60
76378;BME280;65200;49.500;8.654;2023-02-10T10:24:33;102784.50;;;2.66;61.50
76378;BME280;65200;49.500;8.654;2023-02-10T10:27:11;102779.41;;;2.95;62.87
76378;BME280;65200;49.500;8.654;2023-02-10T10:29:49;102770.50;;;2.80;62.71
76378;BME280;65200;49.500;8.654;2023-02-10T10:32:18;102780.47;;;3.08;62.56
76378;BME280;65200;49.500;8.654;2023-02-10T10:34:50;102776.88;;;3.09;60.79
76378;BME280;65200;49.500;8.654;2023-02-10T10:37:20;102782.94;;;2.95;60.31
76378;BME280;65200;49.500;8.654;2023-02-10T10:39:51;102780.25;;;2.79;60.76
76378;BME280;65200;49.500;8.654;2023-02-10T10:42:23;102783.34;;;2.88;60.76
76378;BME280;65200;49.500;8.654;2023-02-10T10:44:55;102770.34;;;2.83;61.39
76378;BME280;65200;49.500;8.654;2023-02-10T10:47:33;102783.53;;;2.85;62.20
76378;BME280;65200;49.500;8.654;2023-02-10T10:50:02;102776.69;;;2.96;62.35
76378;BME280;65200;49.500;8.654;2023-02-10T10:52:32;102768.81;;;2.95;61.75
76378;BME280;65200;49.500;8.654;2023-02-10T10:55:06;102768.34;;;3.04;61.42
76378;BME280;65200;49.500;8.654;2023-02-10T10:57:34;102766.63;;;3.34;61.90
76378;BME280;65200;49.500;8.654;2023-02-10T11:00:05;102773.66;;;3.35;61.11
76378;BME280;65200;49.500;8.654;2023-02-10T11:02:35;102770.59;;;3.27;59.69
76378;BME280;65200;49.500;8.654;2023-02-10T11:05:03;102776.13;;;3.38;59.07
76378;BME280;65200;49.500;8.654;2023-02-10T11:07:32;102770.94;;;3.36;58.98
76378;BME280;65200;49.500;8.654;2023-02-10T11:09:59;102767.34;;;3.53;59.78
76378;BME280;65200;49.500;8.654;2023-02-10T11:12:31;102762.72;;;3.41;59.71
76378;BME280;65200;49.500;8.654;2023-02-10T11:14:59;102758.44;;;3.38;60.15
76378;BME280;65200;49.500;8.654;2023-02-10T11:17:30;102762.78;;;3.55;60.19
76378;BME280;65200;49.500;8.654;2023-02-10T11:20:01;102759.03;;;3.59;59.79
76378;BME280;65200;49.500;8.654;2023-02-10T11:22:28;102757.56;;;3.69;60.34
76378;BME280;65200;49.500;8.654;2023-02-10T11:24:57;102762.88;;;3.69;59.47
76378;BME280;65200;49.500;8.654;2023-02-10T11:27:24;102747.69;;;3.71;59.29
76378;BME280;65200;49.500;8.654;2023-02-10T11:29:54;102749.84;;;3.64;59.46
76378;BME280;65200;49.500;8.654;2023-02-10T11:32:23;102745.22;;;3.68;59.38
76378;BME280;65200;49.500;8.654;2023-02-10T11:34:53;102743.72;;;3.64;60.52
76378;BME280;65200;49.500;8.654;2023-02-10T11:37:23;102741.66;;;3.69;60.65
76378;BME280;65200;49.500;8.654;2023-02-10T11:39:53;102735.31;;;3.71;60.36
76378;BME280;65200;49.500;8.654;2023-02-10T11:42:22;102735.44;;;3.84;60.06
76378;BME280;65200;49.500;8.654;2023-02-10T11:44:56;102731.19;;;3.81;59.85
76378;BME280;65200;49.500;8.654;2023-02-10T11:47:24;102731.81;;;4.00;60.62
76378;BME280;65200;49.500;8.654;2023-02-10T11:49:51;102720.69;;;3.94;59.52
76378;BME280;65200;49.500;8.654;2023-02-10T11:52:19;102714.97;;;3.72;60.46
76378;BME280;65200;49.500;8.654;2023-02-10T11:54:48;102713.63;;;3.49;60.39
76378;BME280;65200;49.500;8.654;2023-02-10T11:57:26;102711.06;;;3.48;61.29
76378;BME280;65200;49.500;8.654;2023-02-10T12:00:19;102707.00;;;3.56;61.92
76378;BME280;65200;49.500;8.654;2023-02-10T12:03:16;102696.66;;;3.67;62.07
76378;BME280;65200;49.500;8.654;2023-02-10T12:05:55;102701.53;;;3.89;61.06
76378;BME280;65200;49.500;8.654;2023-02-10T12:08:29;102695.63;;;3.99;60.43
76378;BME280;65200;49.500;8.654;2023-02-10T12:11:04;102696.78;;;4.23;59.82
76378;BME280;65200;49.500;8.654;2023-02-10T12:13:39;102708.19;;;4.40;60.78
76378;BME280;65200;49.500;8.654;2023-02-10T12:16:18;102714.94;;;4.59;59.15
76378;BME280;65200;49.500;8.654;2023-02-10T12:18:55;102722.22;;;4.56;59.90
76378;BME280;65200;49.500;8.654;2023-02-10T12:21:35;102716.47;;;4.63;59.03
76378;BME280;65200;49.500;8.654;2023-02-10T12:24:23;102721.88;;;4.62;58.75
76378;BME280;65200;49.500;8.654;2023-02-10T12:26:59;102712.91;;;4.20;59.96
76378;BME280;65200;49.500;8.654;2023-02-10T12:29:36;102708.97;;;3.98;60.38
76378;BME280;65200;49.500;8.654;2023-02-10T12:32:15;102711.63;;;3.98;60.08
76378;BME280;65200;49.500;8.654;2023-02-10T12:37:48;102701.94;;;4.55;58.18
76378;BME280;65200;49.500;8.654;2023-02-10T12:40:27;102699.00;;;4.59;59.57
76378;BME280;65200;49.500;8.654;2023-02-10T12:43:08;102701.03;;;4.96;58.82
76378;BME280;65200;49.500;8.654;2023-02-10T12:45:43;102701.84;;;5.25;56.37
76378;BME280;65200;49.500;8.654;2023-02-10T12:48:21;102697.16;;;5.02;55.87
76378;BME280;65200;49.500;8.654;2023-02-10T12:51:08;102702.00;;;4.95;56.50
76378;BME280;65200;49.500;8.654;2023-02-10T12:53:41;102696.31;;;4.73;57.69
76378;BME280;65200;49.500;8.654;2023-02-10T12:56:12;102696.00;;;5.06;56.55
76378;BME280;65200;49.500;8.654;2023-02-10T12:58:45;102694.41;;;5.03;57.02
76378;BME280;65200;49.500;8.654;2023-02-10T13:01:16;102693.97;;;5.23;57.41
76378;BME280;65200;49.500;8.654;2023-02-10T13:03:47;102685.53;;;5.43;56.03
76378;BME280;65200;49.500;8.654;2023-02-10T13:06:25;102674.22;;;5.67;56.08
76378;BME280;65200;49.500;8.654;2023-02-10T13:08:57;102684.56;;;5.71;55.90